createdAt,value
2018-08-19T00:02:19.709Z,84.60
2018-08-19T00:05:05.572Z,84.90
2018-08-19T00:07:34.971Z,84.70
2018-08-19T00:10:03.615Z,84.80
2018-08-19T00:12:39.813Z,84.60
2018-08-19T00:15:08.261Z,84.70
2018-08-19T00:17:36.694Z,84.60
2018-08-19T00:20:07.402Z,84.80
2018-08-19T00:22:35.828Z,84.80
2018-08-19T00:25:04.574Z,84.80
2018-08-19T00:27:34.654Z,84.80
2018-08-19T00:30:03.153Z,84.80
2018-08-19T00:32:31.530Z,84.80
2018-08-19T00:34:59.955Z,84.90
2018-08-19T00:37:28.445Z,84.90
2018-08-19T00:40:01.280Z,84.80
2018-08-19T00:42:29.668Z,84.90
2018-08-19T00:44:58.054Z,84.90
2018-08-19T00:47:26.489Z,84.90
2018-08-19T00:49:59.115Z,84.90
2018-08-19T00:52:27.598Z,85.10
2018-08-19T00:54:56.048Z,85.10
2018-08-19T00:57:24.512Z,85.60
2018-08-19T00:59:52.907Z,85.40
2018-08-19T01:02:21.344Z,85.20
2018-08-19T01:04:50.741Z,85.30
2018-08-19T01:07:19.197Z,85.30
2018-08-19T01:09:47.642Z,85.20
2018-08-19T01:12:16.085Z,85.10
2018-08-19T01:14:44.459Z,85.10
2018-08-19T01:17:12.914Z,85.10
2018-08-19T01:19:41.390Z,84.90
2018-08-19T01:22:09.844Z,85.20
2018-08-19T01:24:38.268Z,85.40
2018-08-19T01:27:07.147Z,85.50
2018-08-19T01:29:51.212Z,85.50
2018-08-19T01:32:21.349Z,85.60
2018-08-19T01:34:49.746Z,85.80
2018-08-19T01:37:18.188Z,86.10
2018-08-19T01:39:46.565Z,86.10
2018-08-19T01:42:14.983Z,86.50
2018-08-19T01:44:43.379Z,86.20
2018-08-19T01:47:11.817Z,86.60
2018-08-19T01:49:40.196Z,86.70
2018-08-19T01:52:08.627Z,86.60
2018-08-19T01:54:37.034Z,86.30
2018-08-19T01:57:05.441Z,86.20
2018-08-19T01:59:34.900Z,86.00
2018-08-19T02:02:05.737Z,85.80
2018-08-19T02:04:40.867Z,85.80
2018-08-19T02:07:09.264Z,85.80
2018-08-19T02:12:10.439Z,86.00
2018-08-19T02:14:38.858Z,86.00
2018-08-19T02:17:07.228Z,86.10
2018-08-19T02:19:35.639Z,86.10
2018-08-19T02:22:04.068Z,86.30
2018-08-19T02:24:32.473Z,86.50
2018-08-19T02:27:00.885Z,86.50
2018-08-19T02:29:34.529Z,87.00
2018-08-19T02:32:04.241Z,86.80
2018-08-19T02:34:35.236Z,86.60
2018-08-19T02:37:08.789Z,86.60
2018-08-19T02:39:40.348Z,86.30
2018-08-19T02:42:23.933Z,86.60
2018-08-19T02:44:54.344Z,86.70
2018-08-19T02:47:22.821Z,86.70
2018-08-19T02:49:51.335Z,86.70
2018-08-19T02:52:33.595Z,86.60
2018-08-19T02:57:33.290Z,86.70
2018-08-19T03:00:02.668Z,86.90
2018-08-19T03:02:33.965Z,86.90
2018-08-19T03:05:04.570Z,86.90
2018-08-19T03:07:33.333Z,87.00
2018-08-19T03:10:05.267Z,87.00
2018-08-19T03:12:33.692Z,87.00
2018-08-19T03:15:02.134Z,87.10
2018-08-19T03:17:31.454Z,87.10
2018-08-19T03:20:00.413Z,87.20
2018-08-19T03:22:29.632Z,87.20
2018-08-19T03:25:00.646Z,87.30
2018-08-19T03:27:29.099Z,87.20
2018-08-19T03:29:58.728Z,87.20
2018-08-19T03:32:27.194Z,87.10
2018-08-19T03:35:02.189Z,87.00
2018-08-19T03:37:30.608Z,87.10
2018-08-19T03:39:58.968Z,87.20
2018-08-19T03:42:27.415Z,87.20
2018-08-19T03:44:59.036Z,87.30
2018-08-19T03:47:28.618Z,87.40
2018-08-19T03:49:57.153Z,87.40
2018-08-19T03:52:25.582Z,87.40
2018-08-19T03:54:53.971Z,87.60
2018-08-19T03:57:22.382Z,87.70
2018-08-19T03:59:50.758Z,87.70
2018-08-19T04:02:19.319Z,87.80
2018-08-19T04:04:48.684Z,88.00
2018-08-19T04:07:17.062Z,88.10
2018-08-19T04:09:45.464Z,88.10
2018-08-19T04:12:15.543Z,88.00
2018-08-19T04:14:43.953Z,88.10
2018-08-19T04:17:14.100Z,88.10
2018-08-19T04:19:42.965Z,88.20
2018-08-19T04:22:11.349Z,88.20
2018-08-19T04:24:39.761Z,88.20
2018-08-19T04:27:10.068Z,88.20
2018-08-19T04:29:38.859Z,88.10
2018-08-19T04:32:24.385Z,88.10
2018-08-19T04:34:53.027Z,88.00
2018-08-19T04:37:21.455Z,88.10
2018-08-19T04:39:49.875Z,87.80
2018-08-19T04:42:18.349Z,87.70
2018-08-19T04:44:46.740Z,87.70
2018-08-19T04:47:29.153Z,87.40
2018-08-19T04:49:57.565Z,87.40
2018-08-19T04:52:26.116Z,87.30
2018-08-19T04:54:55.637Z,87.30
2018-08-19T04:57:24.020Z,87.30
2018-08-19T04:59:52.445Z,87.30
2018-08-19T05:02:21.417Z,87.60
2018-08-19T05:04:49.705Z,87.40
2018-08-19T05:09:46.252Z,87.20
2018-08-19T05:12:14.880Z,87.00
2018-08-19T05:14:43.297Z,87.30
2018-08-19T05:17:11.734Z,87.10
2018-08-19T05:19:40.159Z,86.90
2018-08-19T05:22:15.218Z,86.80
2018-08-19T05:24:45.209Z,86.60
2018-08-19T05:27:14.301Z,86.50
2018-08-19T05:29:42.761Z,86.60
2018-08-19T05:32:13.502Z,87.00
2018-08-19T05:34:42.040Z,87.00
2018-08-19T05:37:10.486Z,87.00
2018-08-19T05:39:44.830Z,87.10
2018-08-19T05:42:13.942Z,87.10
2018-08-19T05:44:42.893Z,87.00
2018-08-19T05:47:12.695Z,87.30
2018-08-19T05:54:59.631Z,86.70
2018-08-19T05:57:30.300Z,86.80
2018-08-19T05:59:59.109Z,86.70
2018-08-19T06:02:34.038Z,86.80
2018-08-19T06:05:03.694Z,86.70
2018-08-19T06:07:32.294Z,86.20
2018-08-19T06:10:00.847Z,86.10
2018-08-19T06:12:29.562Z,86.10
2018-08-19T06:15:00.272Z,85.20
2018-08-19T06:17:28.774Z,84.50
2018-08-19T06:19:57.593Z,84.50
2018-08-19T06:22:41.676Z,81.90
2018-08-19T06:25:11.155Z,81.60
2018-08-19T06:27:42.818Z,80.50
2018-08-19T06:30:11.607Z,77.20
2018-08-19T06:32:40.104Z,75.20
2018-08-19T06:35:08.764Z,73.90
2018-08-19T06:37:37.161Z,72.90
2018-08-19T06:40:06.917Z,70.60
2018-08-19T06:42:35.309Z,69.10
2018-08-19T06:47:32.033Z,67.10
2018-08-19T06:50:01.095Z,66.80
2018-08-19T06:52:29.653Z,65.30
2018-08-19T06:54:58.113Z,62.40
2018-08-19T06:57:28.792Z,62.10
2018-08-19T06:59:57.396Z,61.80
2018-08-19T07:02:27.176Z,61.90
2018-08-19T07:04:55.605Z,60.80
2018-08-19T07:07:23.993Z,60.30
2018-08-19T07:09:52.400Z,61.90
2018-08-19T07:12:22.180Z,62.90
2018-08-19T07:14:50.996Z,61.20
2018-08-19T07:17:19.784Z,62.50
2018-08-19T07:19:48.232Z,63.00
2018-08-19T07:22:18.880Z,61.00
2018-08-19T07:24:47.269Z,60.30
2018-08-19T07:27:15.686Z,58.70
2018-08-19T07:29:44.163Z,58.50
2018-08-19T07:32:13.155Z,57.50
2018-08-19T07:34:41.634Z,56.70
2018-08-19T07:37:10.112Z,56.80
2018-08-19T07:39:45.033Z,55.70
2018-08-19T07:42:13.755Z,55.20
2018-08-19T07:44:42.207Z,56.40
2018-08-19T07:47:10.627Z,55.80
2018-08-19T07:49:39.035Z,54.40
2018-08-19T07:52:07.644Z,54.00
2018-08-19T07:54:36.090Z,53.10
2018-08-19T07:57:14.232Z,52.40
2018-08-19T07:59:43.645Z,53.10
2018-08-19T08:02:12.083Z,54.70
2018-08-19T08:04:43.500Z,54.00
2018-08-19T08:07:12.773Z,53.60
2018-08-19T08:09:41.853Z,52.40
2018-08-19T08:12:11.561Z,53.50
2018-08-19T08:14:44.201Z,53.80
2018-08-19T08:17:12.640Z,51.60
2018-08-19T08:19:47.117Z,51.50
2018-08-19T08:22:17.047Z,50.50
2018-08-19T08:24:45.485Z,49.60
2018-08-19T08:27:14.820Z,50.60
2018-08-19T08:29:43.682Z,50.10
2018-08-19T08:32:12.591Z,49.70
2018-08-19T08:34:41.036Z,49.60
2018-08-19T08:37:09.892Z,49.30
2018-08-19T08:39:39.081Z,49.10
2018-08-19T08:42:07.797Z,48.20
2018-08-19T08:44:36.227Z,47.30
2018-08-19T08:47:07.407Z,48.10
2018-08-19T08:49:41.144Z,50.00
2018-08-19T08:52:16.066Z,49.10
2018-08-19T08:54:49.925Z,48.90
2018-08-19T08:57:19.421Z,47.90
2018-08-19T08:59:47.913Z,47.80
2018-08-19T09:02:16.372Z,47.90
2018-08-19T09:04:44.774Z,48.00
2018-08-19T09:07:13.200Z,49.70
2018-08-19T09:09:42.707Z,49.60
2018-08-19T09:12:12.471Z,47.90
2018-08-19T09:14:41.397Z,46.60
2018-08-19T09:17:10.013Z,46.50
2018-08-19T09:19:38.817Z,46.40
2018-08-19T09:22:07.217Z,46.10
2018-08-19T09:24:35.677Z,46.30
2018-08-19T09:27:04.153Z,46.90
2018-08-19T09:29:32.575Z,46.20
2018-08-19T09:32:00.953Z,46.60
2018-08-19T09:34:30.016Z,48.10
2018-08-19T09:37:00.175Z,47.10
2018-08-19T09:39:28.975Z,47.10
2018-08-19T09:42:13.144Z,47.00
2018-08-19T09:44:42.733Z,45.70
2018-08-19T09:47:11.149Z,45.20
2018-08-19T09:49:39.578Z,45.00
2018-08-19T09:52:08.080Z,45.60
2018-08-19T09:54:37.652Z,46.40
2018-08-19T09:57:07.141Z,45.30
2018-08-19T09:59:35.598Z,47.10
2018-08-19T10:02:07.199Z,47.10
2018-08-19T10:04:35.637Z,46.60
2018-08-19T10:07:09.510Z,45.60
2018-08-19T10:12:06.464Z,45.90
2018-08-19T10:14:34.897Z,47.00
2018-08-19T10:17:03.386Z,47.10
2018-08-19T10:19:31.816Z,47.10
2018-08-19T10:22:00.222Z,47.30
2018-08-19T10:24:33.030Z,46.10
2018-08-19T10:27:01.566Z,46.10
2018-08-19T10:29:29.981Z,46.40
2018-08-19T10:32:00.398Z,46.40
2018-08-19T10:34:32.369Z,45.20
2018-08-19T10:37:01.454Z,46.20
2018-08-19T10:39:29.883Z,47.10
2018-08-19T10:42:13.834Z,48.50
2018-08-19T10:44:42.615Z,50.90
2018-08-19T10:47:11.049Z,53.30
2018-08-19T10:49:39.571Z,55.10
2018-08-19T10:52:11.453Z,55.20
2018-08-19T10:54:39.839Z,55.20
2018-08-19T10:57:19.614Z,55.00
2018-08-19T10:59:52.425Z,55.30
2018-08-19T11:02:20.929Z,54.40
2018-08-19T11:04:49.703Z,56.20
2018-08-19T11:07:18.834Z,57.30
2018-08-19T11:09:59.071Z,56.80
2018-08-19T11:12:27.562Z,57.20
2018-08-19T11:14:55.936Z,57.20
2018-08-19T11:17:24.369Z,57.40
2018-08-19T11:19:52.770Z,57.90
2018-08-19T11:22:21.173Z,57.90
2018-08-19T11:24:49.553Z,57.60
2018-08-19T11:27:18.018Z,58.10
2018-08-19T11:29:46.552Z,58.40
2018-08-19T11:32:29.225Z,57.60
2018-08-19T11:34:57.613Z,58.30
2018-08-19T11:37:26.116Z,58.40
2018-08-19T11:39:54.591Z,58.70
2018-08-19T11:42:23.013Z,59.10
2018-08-19T11:44:51.407Z,59.50
2018-08-19T11:47:19.820Z,58.60
2018-08-19T11:49:48.200Z,58.60
2018-08-19T11:52:16.636Z,58.90
2018-08-19T11:54:45.013Z,58.90
2018-08-19T11:57:13.567Z,59.00
2018-08-19T11:59:44.068Z,58.60
2018-08-19T12:02:14.325Z,58.70
2018-08-19T12:04:42.754Z,59.60
2018-08-19T12:07:11.190Z,58.90
2018-08-19T12:09:43.724Z,57.90
2018-08-19T12:12:12.173Z,59.50
2018-08-19T12:14:40.577Z,57.70
2018-08-19T12:17:10.476Z,58.20
2018-08-19T12:19:43.712Z,58.10
2018-08-19T12:22:12.140Z,58.30
2018-08-19T12:24:45.151Z,58.30
2018-08-19T12:27:15.074Z,58.60
2018-08-19T12:29:44.153Z,59.00
2018-08-19T12:32:18.336Z,58.70
2018-08-19T12:34:48.993Z,59.30
2018-08-19T12:37:18.600Z,58.10
2018-08-19T12:39:47.281Z,58.70
2018-08-19T12:42:15.693Z,59.10
2018-08-19T12:44:54.308Z,59.20
2018-08-19T12:47:24.371Z,58.90
2018-08-19T12:49:56.150Z,59.40
2018-08-19T12:52:27.068Z,59.60
2018-08-19T12:55:00.880Z,59.50
2018-08-19T12:57:29.306Z,59.60
2018-08-19T13:00:33.160Z,58.40
2018-08-19T13:03:01.909Z,59.80
2018-08-19T13:05:30.370Z,59.30
2018-08-19T13:07:59.014Z,59.00
2018-08-19T13:10:36.930Z,58.50
2018-08-19T13:13:05.961Z,58.60
2018-08-19T13:15:34.352Z,59.30
2018-08-19T13:18:02.782Z,58.20
2018-08-19T13:20:31.182Z,59.30
2018-08-19T13:23:05.428Z,59.10
2018-08-19T13:25:35.026Z,59.40
2018-08-19T13:28:03.450Z,60.00
2018-08-19T13:30:31.861Z,59.80
2018-08-19T13:33:00.288Z,60.30
2018-08-19T13:35:28.717Z,60.60
2018-08-19T13:37:57.109Z,60.50
2018-08-19T13:40:25.542Z,60.20
2018-08-19T13:42:53.956Z,60.50
2018-08-19T13:45:23.646Z,60.60
2018-08-19T13:47:53.403Z,61.10
2018-08-19T13:50:21.864Z,61.10
2018-08-19T13:52:50.694Z,60.30
2018-08-19T13:55:20.597Z,60.40
2018-08-19T13:57:49.051Z,60.20
2018-08-19T14:00:19.676Z,60.40
2018-08-19T14:02:48.638Z,60.30
2018-08-19T14:05:17.057Z,60.50
2018-08-19T14:07:45.465Z,60.30
2018-08-19T14:10:14.960Z,60.60
2018-08-19T14:12:43.374Z,60.60
2018-08-19T14:15:11.810Z,60.80
2018-08-19T14:17:40.183Z,61.20
2018-08-19T14:20:09.595Z,61.50
2018-08-19T14:22:38.155Z,60.80
2018-08-19T14:25:07.868Z,60.40
2018-08-19T14:27:36.597Z,60.40
2018-08-19T14:30:05.984Z,60.10
2018-08-19T14:32:42.764Z,60.10
2018-08-19T14:35:11.239Z,59.90
2018-08-19T14:37:39.636Z,60.80
2018-08-19T14:40:11.291Z,61.10
2018-08-19T14:42:39.644Z,60.90
2018-08-19T14:45:08.004Z,60.90
2018-08-19T14:47:36.470Z,61.00
2018-08-19T14:50:17.240Z,60.40
2018-08-19T14:52:45.871Z,60.80
2018-08-19T14:55:14.353Z,60.80
2018-08-19T14:57:43.038Z,59.90
2018-08-19T15:00:14.453Z,60.40
2018-08-19T15:02:42.932Z,60.60
2018-08-19T15:05:17.919Z,60.50
2018-08-19T15:10:18.501Z,59.40
2018-08-19T15:12:46.955Z,59.80
2018-08-19T15:15:15.340Z,59.40
2018-08-19T15:17:48.711Z,60.80
2018-08-19T15:20:21.676Z,60.50
2018-08-19T15:22:50.185Z,60.80
2018-08-19T15:25:18.583Z,61.00
2018-08-19T15:27:54.042Z,61.30
2018-08-19T15:30:27.864Z,61.20
2018-08-19T15:32:56.587Z,61.50
2018-08-19T15:35:24.710Z,61.00
2018-08-19T15:37:53.104Z,61.10
2018-08-19T15:40:32.587Z,61.10
2018-08-19T15:43:00.986Z,61.00
2018-08-19T15:45:29.392Z,61.50
2018-08-19T15:47:57.833Z,61.70
2018-08-19T15:52:54.479Z,60.40
2018-08-19T15:55:22.933Z,60.30
2018-08-19T15:57:51.341Z,60.30
2018-08-19T16:00:19.769Z,60.40
2018-08-19T16:02:48.205Z,60.20
2018-08-19T16:05:17.603Z,60.40
2018-08-19T16:07:46.773Z,60.20
2018-08-19T16:10:16.103Z,60.80
2018-08-19T16:12:48.969Z,60.90
2018-08-19T16:15:29.782Z,60.60
2018-08-19T16:17:58.528Z,60.80
2018-08-19T16:20:26.957Z,61.50
2018-08-19T16:22:55.381Z,60.90
2018-08-19T16:25:23.818Z,61.10
2018-08-19T16:27:52.371Z,61.10
2018-08-19T16:30:21.136Z,60.80
2018-08-19T16:32:49.616Z,60.40
2018-08-19T16:35:18.025Z,60.40
2018-08-19T16:37:46.431Z,61.80
2018-08-19T16:40:14.918Z,61.00
2018-08-19T16:42:43.324Z,62.00
2018-08-19T16:45:12.740Z,62.10
2018-08-19T16:47:41.121Z,61.80
2018-08-19T16:50:11.990Z,61.10
2018-08-19T16:52:40.365Z,61.60
2018-08-19T16:55:09.659Z,62.60
2018-08-19T16:57:38.082Z,62.80
2018-08-19T17:00:07.789Z,63.10
2018-08-19T17:02:36.364Z,63.10
2018-08-19T17:05:41.260Z,62.70
2018-08-19T17:08:09.657Z,63.50
2018-08-19T17:10:38.047Z,63.70
2018-08-19T17:13:06.471Z,63.80
2018-08-19T17:15:34.843Z,63.40
2018-08-19T17:18:03.268Z,64.50
2018-08-19T17:20:31.672Z,64.40
2018-08-19T17:23:00.100Z,63.00
2018-08-19T17:25:28.473Z,63.90
2018-08-19T17:27:59.913Z,64.70
2018-08-19T17:30:28.562Z,64.40
2018-08-19T17:33:01.259Z,63.00
2018-08-19T17:35:29.585Z,63.40
2018-08-19T17:37:58.063Z,63.40
2018-08-19T17:40:26.469Z,62.70
2018-08-19T17:42:55.012Z,63.80
2018-08-19T17:45:23.460Z,64.20
2018-08-19T17:47:51.848Z,64.50
2018-08-19T17:50:25.228Z,65.20
2018-08-19T17:52:55.040Z,65.60
2018-08-19T17:55:23.933Z,66.10
2018-08-19T17:57:52.546Z,66.50
2018-08-19T18:00:22.334Z,66.70
2018-08-19T18:02:51.042Z,66.70
2018-08-19T18:05:19.515Z,66.70
2018-08-19T18:07:49.037Z,67.10
2018-08-19T18:10:17.439Z,67.10
2018-08-19T18:12:45.969Z,67.70
2018-08-19T18:15:14.472Z,67.80
2018-08-19T18:17:51.899Z,68.40
2018-08-19T18:20:25.605Z,68.80
2018-08-19T18:22:55.237Z,69.10
2018-08-19T18:25:24.659Z,69.20
2018-08-19T18:27:53.020Z,69.80
2018-08-19T18:30:25.393Z,70.20
2018-08-19T18:32:54.094Z,70.80
2018-08-19T18:35:23.656Z,71.10
2018-08-19T18:37:52.112Z,71.10
2018-08-19T18:40:25.898Z,71.40
2018-08-19T18:42:54.323Z,71.60
2018-08-19T18:45:22.728Z,71.60
2018-08-19T18:47:56.482Z,72.00
2018-08-19T18:50:25.776Z,72.30
2018-08-19T18:52:54.600Z,72.30
2018-08-19T18:55:23.044Z,72.60
2018-08-19T18:57:53.558Z,72.70
2018-08-19T19:00:23.936Z,72.50
2018-08-19T19:02:59.828Z,72.40
2018-08-19T19:05:44.168Z,73.20
2018-08-19T19:08:13.712Z,73.40
2018-08-19T19:10:56.919Z,73.90
2018-08-19T19:13:26.364Z,74.00
2018-08-19T19:15:54.798Z,74.00
2018-08-19T19:18:23.299Z,73.90
2018-08-19T19:20:57.205Z,74.30
2018-08-19T19:23:29.901Z,74.40
2018-08-19T19:25:58.741Z,74.40
2018-08-19T19:28:27.240Z,74.70
2018-08-19T19:31:06.545Z,74.90
2018-08-19T19:33:35.669Z,75.30
2018-08-19T19:36:09.401Z,75.20
2018-08-19T19:38:45.398Z,75.50
2018-08-19T19:41:13.813Z,75.60
2018-08-19T19:43:42.391Z,75.70
2018-08-19T19:46:10.827Z,76.00
2018-08-19T19:48:39.232Z,76.10
2018-08-19T19:51:07.698Z,76.10
2018-08-19T19:53:36.158Z,76.00
2018-08-19T19:56:09.936Z,76.20
2018-08-19T19:58:38.334Z,76.60
2018-08-19T20:01:06.766Z,76.60
2018-08-19T20:03:40.668Z,76.60
2018-08-19T20:06:09.155Z,76.80
2018-08-19T20:08:37.694Z,77.00
2018-08-19T20:11:10.474Z,77.00
2018-08-19T20:13:38.881Z,77.10
2018-08-19T20:16:07.547Z,77.20
2018-08-19T20:18:35.953Z,77.30
2018-08-19T20:21:07.256Z,77.40
2018-08-19T20:23:35.642Z,77.60
2018-08-19T20:26:04.129Z,77.50
2018-08-19T20:28:32.487Z,77.60
2018-08-19T20:31:00.973Z,77.50
2018-08-19T20:33:29.756Z,77.50
2018-08-19T20:35:58.297Z,77.50
2018-08-19T20:38:26.724Z,77.60
2018-08-19T20:40:55.910Z,77.70
2018-08-19T20:43:25.094Z,77.70
2018-08-19T20:45:53.750Z,77.70
2018-08-19T20:48:22.760Z,77.80
2018-08-19T20:53:19.913Z,77.80
2018-08-19T20:55:48.740Z,77.80
2018-08-19T20:58:17.107Z,77.80
2018-08-19T21:00:45.520Z,78.00
2018-08-19T21:03:13.925Z,77.80
2018-08-19T21:05:42.317Z,78.00
2018-08-19T21:08:15.722Z,78.10
2018-08-19T21:10:45.090Z,78.20
2018-08-19T21:13:14.627Z,78.40
2018-08-19T21:15:44.293Z,78.60
2018-08-19T21:18:12.715Z,78.50
2018-08-19T21:20:41.292Z,78.60
2018-08-19T21:23:09.705Z,78.70
2018-08-19T21:25:46.886Z,78.80
2018-08-19T21:28:15.833Z,78.70
2018-08-19T21:30:44.328Z,78.80
2018-08-19T21:33:12.727Z,78.80
2018-08-19T21:35:46.379Z,78.80
2018-08-19T21:38:14.964Z,79.00
2018-08-19T21:40:43.380Z,79.00
2018-08-19T21:43:12.120Z,79.00
2018-08-19T21:45:40.681Z,79.00
2018-08-19T21:48:14.256Z,79.20
2018-08-19T21:50:42.749Z,79.50
2018-08-19T21:53:15.749Z,79.70
2018-08-19T21:55:46.486Z,79.60
2018-08-19T21:58:14.964Z,79.50
2018-08-19T22:00:45.805Z,79.20
2018-08-19T22:03:20.718Z,79.20
2018-08-19T22:05:50.544Z,79.20
2018-08-19T22:08:19.032Z,79.20
2018-08-19T22:10:48.497Z,79.10
2018-08-19T22:13:16.933Z,79.00
2018-08-19T22:15:46.306Z,79.00
2018-08-19T22:18:17.377Z,79.10
2018-08-19T22:20:59.050Z,79.00
2018-08-19T22:23:32.905Z,79.00
2018-08-19T22:26:01.301Z,79.10
2018-08-19T22:28:29.702Z,79.20
2018-08-19T22:30:59.163Z,79.20
2018-08-19T22:33:27.631Z,79.20
2018-08-19T22:35:56.081Z,79.50
2018-08-19T22:38:24.479Z,79.50
2018-08-19T22:40:52.904Z,79.50
2018-08-19T22:43:21.324Z,79.50
2018-08-19T22:45:49.809Z,79.50
2018-08-19T22:48:33.697Z,79.80
2018-08-19T22:51:02.136Z,79.80
2018-08-19T22:53:30.537Z,80.10
2018-08-19T22:55:58.982Z,80.10
2018-08-19T22:58:27.356Z,80.10
2018-08-19T23:00:55.790Z,80.00
2018-08-19T23:03:24.180Z,80.00
2018-08-19T23:05:52.716Z,80.10
2018-08-19T23:08:26.340Z,79.90
2018-08-19T23:10:56.041Z,79.90
2018-08-19T23:13:35.579Z,79.70
2018-08-19T23:16:06.816Z,79.80
2018-08-19T23:18:35.386Z,79.80
2018-08-19T23:21:03.864Z,79.80
2018-08-19T23:23:32.621Z,79.90
2018-08-19T23:26:01.329Z,80.00
2018-08-19T23:28:29.717Z,80.00
2018-08-19T23:30:58.385Z,80.20
2018-08-19T23:33:26.759Z,80.20
2018-08-19T23:35:55.373Z,80.20
2018-08-19T23:38:23.768Z,80.30
2018-08-19T23:40:52.169Z,80.30
2018-08-19T23:43:20.561Z,80.20
2018-08-19T23:45:48.965Z,80.50
2018-08-19T23:48:17.342Z,80.90
2018-08-19T23:50:45.775Z,80.90
2018-08-19T23:53:14.209Z,81.00
2018-08-19T23:55:42.656Z,81.10
2018-08-19T23:58:11.117Z,81.10
